Time;durP1;ratioP1;P1;durP2;ratioP2;P2;SDS_P1;SDS_P2;PMS_P1;PMS_P2;Temp;Humidity;BMP_temperature;BMP_pressure;BME280_temperature;BME280_humidity;BME280_pressure;Samples;Min_cycle;Max_cycle;Signal;HPM_P1;HPM_P2
2022/12/30 00:00:56;;;;;;;1.10;0.70;;;8.40;99.90;;;;;;4851239;29;20037;-78
2022/12/30 00:03:22;;;;;;;3.35;1.08;;;8.40;99.90;;;;;;4866658;29;20102;-78
2022/12/30 00:05:48;;;;;;;3.05;1.13;;;8.50;99.90;;;;;;4852357;29;20114;-79
2022/12/30 00:10:58;;;;;;;1.67;0.70;;;8.40;99.90;;;;;;4852017;29;20088;-78
2022/12/30 00:34:07;;;;;;;1.38;0.75;;;8.70;99.90;;;;;;4859816;29;20112;-78
2022/12/30 00:36:34;;;;;;;6.75;1.02;;;8.60;99.90;;;;;;4867657;29;20045;-79
2022/12/30 00:38:59;;;;;;;3.55;0.77;;;8.60;99.90;;;;;;4864979;29;20039;-78
2022/12/30 00:44:09;;;;;;;2.20;1.50;;;8.60;99.90;;;;;;4854760;29;20486;-78
2022/12/30 00:46:38;;;;;;;5.85;1.35;;;8.50;99.90;;;;;;4853771;29;20040;-78
2022/12/30 00:57:16;;;;;;;2.97;0.82;;;8.30;99.90;;;;;;4831233;29;20029;-79
2022/12/30 00:59:42;;;;;;;4.30;0.70;;;8.20;99.90;;;;;;4829359;29;20038;-79
2022/12/30 01:02:08;;;;;;;0.60;0.40;;;8.20;99.90;;;;;;4836182;29;20033;-78
2022/12/30 01:04:33;;;;;;;1.15;0.45;;;8.20;99.90;;;;;;4865519;29;20504;-79
2022/12/30 01:06:59;;;;;;;10.43;0.95;;;8.20;99.90;;;;;;4856277;29;20052;-78
2022/12/30 01:09:25;;;;;;;0.60;0.50;;;8.10;99.90;;;;;;4851396;29;20025;-78
2022/12/30 01:12:09;;;;;;;1.35;0.82;;;8.10;99.90;;;;;;4856420;29;20509;-78
2022/12/30 01:14:38;;;;;;;5.13;0.85;;;8.00;99.90;;;;;;4862921;29;20029;-78
2022/12/30 01:17:06;;;;;;;10.10;1.48;;;8.00;99.90;;;;;;4856336;29;20174;-78
2022/12/30 01:19:32;;;;;;;1.08;0.40;;;8.00;99.90;;;;;;4865199;29;20032;-78
2022/12/30 01:21:59;;;;;;;3.47;0.68;;;7.90;99.90;;;;;;4870454;29;20044;-78
2022/12/30 01:24:24;;;;;;;0.60;0.28;;;7.90;99.90;;;;;;4864995;29;20112;-77
2022/12/30 01:26:50;;;;;;;1.30;0.70;;;7.90;99.90;;;;;;4856461;29;20124;-77
2022/12/30 01:29:32;;;;;;;1.60;1.10;;;7.90;99.90;;;;;;4865097;29;20124;-77
2022/12/30 01:31:58;;;;;;;1.42;0.40;;;7.80;99.90;;;;;;4855478;29;20029;-77
2022/12/30 01:34:25;;;;;;;1.17;0.55;;;7.80;99.90;;;;;;4865065;29;20041;-77
2022/12/30 01:36:51;;;;;;;10.75;1.20;;;7.70;99.90;;;;;;4870556;29;20030;-77
2022/12/30 01:39:18;;;;;;;8.05;0.93;;;7.80;99.90;;;;;;4865032;29;20029;-77
2022/12/30 01:41:44;;;;;;;4.55;0.60;;;7.70;99.90;;;;;;4857152;29;20132;-77
2022/12/30 01:44:48;;;;;;;1.48;0.60;;;7.70;99.90;;;;;;4850955;29;20040;-77
2022/12/30 01:47:40;;;;;;;2.38;0.63;;;7.70;99.90;;;;;;4842386;29;20120;-77
2022/12/30 01:50:09;;;;;;;3.63;0.65;;;7.60;99.90;;;;;;4850465;29;20060;-77
2022/12/30 01:52:45;;;;;;;4.32;1.10;;;7.50;99.90;;;;;;4856087;29;20085;-77
2022/12/30 01:55:41;;;;;;;7.20;1.23;;;7.50;99.90;;;;;;4865490;29;20120;-77
2022/12/30 01:58:18;;;;;;;0.82;0.57;;;7.50;99.90;;;;;;4835951;29;20073;-77
2022/12/30 02:00:44;;;;;;;3.90;1.00;;;7.50;99.90;;;;;;4836815;29;20057;-77
2022/12/30 02:03:11;;;;;;;3.08;0.85;;;7.40;99.90;;;;;;4866865;29;20026;-77
2022/12/30 02:05:41;;;;;;;2.08;1.25;;;7.50;99.90;;;;;;4857613;29;20086;-76
2022/12/30 02:08:14;;;;;;;0.63;0.60;;;7.50;99.90;;;;;;4830557;29;20033;-78
2022/12/30 02:10:46;;;;;;;1.40;0.43;;;7.50;99.90;;;;;;4839151;29;20116;-77
2022/12/30 02:13:14;;;;;;;7.57;1.30;;;7.60;99.90;;;;;;4870793;29;20396;-77
2022/12/30 02:15:56;;;;;;;5.72;1.00;;;7.60;99.90;;;;;;4857836;29;20041;-78
2022/12/30 02:18:30;;;;;;;;;;;7.50;99.90;;;;;;4850066;29;20033;-77
2022/12/30 02:21:43;;;;;;;1.55;0.38;;;7.50;99.90;;;;;;4857178;29;19923;-77
2022/12/30 02:25:07;;;;;;;7.45;1.65;;;7.50;99.90;;;;;;4814860;29;20092;-77
2022/12/30 02:28:13;;;;;;;1.50;0.75;;;7.40;99.90;;;;;;4855473;29;20505;-77
2022/12/30 02:31:09;;;;;;;1.75;0.70;;;7.40;99.90;;;;;;4855356;29;20044;-78
2022/12/30 02:33:53;;;;;;;1.67;0.57;;;7.30;99.90;;;;;;4851094;29;20017;-78
2022/12/30 02:36:48;;;;;;;2.72;0.45;;;7.30;99.90;;;;;;4854997;29;20513;-77
2022/12/30 02:39:27;;;;;;;8.30;0.93;;;7.30;99.90;;;;;;4854018;29;20064;-77
2022/12/30 02:45:14;;;;;;;2.83;1.23;;;7.20;99.90;;;;;;4864099;29;20102;-77
2022/12/30 02:47:50;;;;;;;0.32;0.20;;;7.20;99.90;;;;;;4864931;29;20465;-77
2022/12/30 02:53:14;;;;;;;1.05;0.40;;;6.90;99.90;;;;;;4864434;29;20106;-78
2022/12/30 02:55:40;;;;;;;2.53;0.80;;;6.80;99.90;;;;;;4870443;29;20029;-78
2022/12/30 02:58:06;;;;;;;5.72;1.20;;;6.70;99.90;;;;;;4851820;29;20038;-78
2022/12/30 03:04:10;;;;;;;1.33;0.50;;;6.50;99.90;;;;;;4847432;29;20037;-79
2022/12/30 03:07:13;;;;;;;9.70;0.85;;;6.40;99.90;;;;;;4840693;29;20034;-77
2022/12/30 03:13:07;;;;;;;;;;;6.30;99.90;;;;;;4849672;29;20522;-78
2022/12/30 03:15:43;;;;;;;1.58;0.47;;;6.30;99.90;;;;;;4861679;29;19921;-78
2022/12/30 03:18:10;;;;;;;7.70;0.75;;;6.20;99.90;;;;;;4865168;29;20038;-77
2022/12/30 03:20:39;;;;;;;4.78;0.82;;;6.10;99.90;;;;;;4870622;29;20041;-78
2022/12/30 03:28:42;;;;;;;3.53;1.90;;;6.10;99.90;;;;;;4864705;29;20572;-78
2022/12/30 03:31:13;;;;;;;0.93;0.70;;;6.20;99.90;;;;;;4863941;29;20561;-78
2022/12/30 03:33:39;;;;;;;4.38;0.98;;;6.20;99.90;;;;;;4866464;29;20116;-78
2022/12/30 03:36:30;;;;;;;8.48;1.90;;;6.30;99.90;;;;;;4853216;29;20053;-77
2022/12/30 03:39:14;;;;;;;0.93;0.60;;;6.30;99.90;;;;;;4855115;29;20053;-78
2022/12/30 03:41:43;;;;;;;6.43;0.93;;;6.40;99.90;;;;;;4863447;29;20104;-77
2022/12/30 03:44:10;;;;;;;3.15;1.20;;;6.40;99.90;;;;;;4852357;29;20081;-77
2022/12/30 03:46:35;;;;;;;6.05;2.63;;;6.50;99.90;;;;;;4867958;29;20103;-78
2022/12/30 03:49:01;;;;;;;3.05;0.98;;;6.40;99.90;;;;;;4852346;29;20034;-78
2022/12/30 03:51:27;;;;;;;0.25;0.25;;;6.40;99.90;;;;;;4868001;29;20390;-77
2022/12/30 03:53:53;;;;;;;1.05;0.80;;;6.30;99.90;;;;;;4852460;29;20056;-77
2022/12/30 03:56:18;;;;;;;3.72;0.98;;;6.30;99.90;;;;;;4853710;29;20071;-77
2022/12/30 03:58:44;;;;;;;6.63;0.60;;;6.20;99.90;;;;;;4852356;29;20065;-80
2022/12/30 04:01:10;;;;;;;2.40;1.67;;;6.10;99.90;;;;;;4868433;29;20127;-78
2022/12/30 04:03:36;;;;;;;2.00;0.85;;;6.10;99.90;;;;;;4858292;29;20037;-77
2022/12/30 04:06:01;;;;;;;1.35;0.73;;;6.00;99.90;;;;;;4853783;29;20042;-78
2022/12/30 04:08:27;;;;;;;3.22;0.40;;;6.00;99.90;;;;;;4851713;29;20041;-77
2022/12/30 04:10:53;;;;;;;6.80;1.08;;;6.00;99.90;;;;;;4868451;29;20137;-78
2022/12/30 04:13:19;;;;;;;1.98;1.30;;;5.90;99.90;;;;;;4851764;29;20029;-78
2022/12/30 04:15:51;;;;;;;8.32;0.88;;;5.90;99.90;;;;;;4868402;29;20375;-78
2022/12/30 04:18:18;;;;;;;1.55;0.90;;;5.90;99.90;;;;;;4862625;29;20108;-77
2022/12/30 04:20:46;;;;;;;3.85;0.68;;;5.90;99.90;;;;;;4840894;29;20495;-78
2022/12/30 04:23:11;;;;;;;2.83;1.00;;;5.90;99.90;;;;;;4857347;29;20094;-78
2022/12/30 04:25:37;;;;;;;4.75;1.02;;;5.80;99.90;;;;;;4831704;29;20050;-78
2022/12/30 04:28:03;;;;;;;2.60;1.05;;;5.80;99.90;;;;;;4851617;29;20034;-78
2022/12/30 04:30:29;;;;;;;2.42;1.23;;;5.80;99.90;;;;;;4852003;29;20053;-78
2022/12/30 04:32:55;;;;;;;4.70;0.82;;;5.80;99.90;;;;;;4853128;29;20066;-77
2022/12/30 04:35:20;;;;;;;7.35;1.17;;;5.90;99.90;;;;;;4851476;29;20033;-78
2022/12/30 04:37:50;;;;;;;3.17;0.80;;;6.00;99.90;;;;;;4867724;29;20048;-78
2022/12/30 04:40:16;;;;;;;3.30;1.40;;;6.00;99.90;;;;;;4848312;29;20029;-78
2022/12/30 04:42:43;;;;;;;2.90;1.27;;;6.10;99.90;;;;;;4850631;29;20038;-78
2022/12/30 04:45:11;;;;;;;2.38;0.75;;;6.20;99.90;;;;;;4849609;29;20048;-78
2022/12/30 04:47:37;;;;;;;3.97;1.85;;;6.20;99.90;;;;;;4868756;29;20505;-77
2022/12/30 04:50:03;;;;;;;3.17;1.73;;;6.20;99.90;;;;;;4849851;29;20041;-78
2022/12/30 04:52:29;;;;;;;10.23;1.95;;;6.20;99.90;;;;;;4869863;29;20037;-77
2022/12/30 04:54:55;;;;;;;10.13;1.55;;;6.20;99.90;;;;;;4848537;29;20098;-78
2022/12/30 04:57:20;;;;;;;4.35;1.67;;;6.10;99.90;;;;;;4855638;29;20501;-78
2022/12/30 04:59:46;;;;;;;4.70;1.23;;;6.00;99.90;;;;;;4844208;29;20042;-78
2022/12/30 05:02:12;;;;;;;7.60;0.90;;;5.90;99.90;;;;;;4857396;29;20532;-78
2022/12/30 05:04:38;;;;;;;1.08;0.90;;;5.80;99.90;;;;;;4843265;29;20036;-78
2022/12/30 05:07:04;;;;;;;1.45;0.77;;;5.70;99.90;;;;;;4857177;29;20052;-78
2022/12/30 05:09:30;;;;;;;5.38;1.13;;;5.60;99.90;;;;;;4861638;29;20046;-78
2022/12/30 05:11:56;;;;;;;5.60;2.15;;;5.50;99.90;;;;;;4870529;29;20417;-78
2022/12/30 05:14:22;;;;;;;3.63;1.08;;;5.50;99.90;;;;;;4862480;29;20038;-78
2022/12/30 05:16:47;;;;;;;2.92;1.05;;;5.40;99.90;;;;;;4864411;29;20037;-78
2022/12/30 05:19:13;;;;;;;3.28;1.35;;;5.30;99.90;;;;;;4831080;29;20116;-77
2022/12/30 05:21:39;;;;;;;6.35;0.98;;;5.20;99.90;;;;;;4830099;29;20509;-78
2022/12/30 05:26:49;;;;;;;1.83;1.15;;;5.10;99.90;;;;;;4832023;29;20569;-78
2022/12/30 05:29:15;;;;;;;4.03;2.88;;;5.10;99.90;;;;;;4828829;29;20095;-78
2022/12/30 05:31:40;;;;;;;2.17;1.08;;;5.10;99.90;;;;;;4841320;29;20039;-78
2022/12/30 05:34:06;;;;;;;2.35;1.55;;;5.20;99.90;;;;;;4864667;29;20045;-78
2022/12/30 05:36:32;;;;;;;3.13;1.70;;;5.30;99.90;;;;;;4854011;29;20029;-78
2022/12/30 05:38:57;;;;;;;1.00;0.80;;;5.40;99.90;;;;;;4864885;29;20037;-77
2022/12/30 05:41:24;;;;;;;6.45;1.70;;;5.40;99.90;;;;;;4854324;29;20403;-78
2022/12/30 05:43:49;;;;;;;1.77;0.75;;;5.40;99.90;;;;;;4850733;29;20041;-78
2022/12/30 05:46:16;;;;;;;2.35;1.33;;;5.30;99.90;;;;;;4865934;23;20128;-79
2022/12/30 05:48:42;;;;;;;8.77;1.70;;;5.30;99.90;;;;;;4829244;29;20030;-78
2022/12/30 05:51:08;;;;;;;0.73;0.60;;;5.30;99.90;;;;;;4823697;29;20047;-78
2022/12/30 05:53:33;;;;;;;0.68;0.50;;;5.30;99.90;;;;;;4832342;29;20026;-79
2022/12/30 05:55:59;;;;;;;1.25;0.95;;;5.40;99.90;;;;;;4825376;29;20047;-78
2022/12/30 05:58:26;;;;;;;0.75;0.63;;;5.40;99.90;;;;;;4832016;29;20104;-79
2022/12/30 06:00:52;;;;;;;8.70;1.25;;;5.40;99.90;;;;;;4831795;29;20377;-78
2022/12/30 06:03:17;;;;;;;5.97;1.63;;;5.40;99.90;;;;;;4832300;29;20109;-78
2022/12/30 06:05:43;;;;;;;2.00;1.10;;;5.40;99.90;;;;;;4832610;29;20058;-78
2022/12/30 06:08:10;;;;;;;3.30;1.58;;;5.40;99.90;;;;;;4831006;29;20046;-78
2022/12/30 06:10:36;;;;;;;1.83;1.00;;;5.40;99.90;;;;;;4827229;29;20591;-78
2022/12/30 06:13:02;;;;;;;2.42;1.23;;;5.40;99.90;;;;;;4830306;29;20125;-78
2022/12/30 06:15:27;;;;;;;11.98;1.33;;;5.40;99.90;;;;;;4829890;29;20038;-78
2022/12/30 06:17:53;;;;;;;2.35;1.17;;;5.40;99.90;;;;;;4829200;29;20043;-79
2022/12/30 06:20:19;;;;;;;3.97;1.38;;;5.40;99.90;;;;;;4816837;29;20503;-78
2022/12/30 06:22:45;;;;;;;5.28;1.58;;;5.30;99.90;;;;;;4825290;29;20030;-78
2022/12/30 06:25:10;;;;;;;2.08;1.08;;;5.30;99.90;;;;;;4834912;29;20118;-78
2022/12/30 06:27:36;;;;;;;3.58;1.48;;;5.20;99.90;;;;;;4832634;29;20038;-79
2022/12/30 06:30:04;;;;;;;3.28;1.00;;;5.10;99.90;;;;;;4835913;29;20399;-80
2022/12/30 06:32:31;;;;;;;4.55;1.73;;;5.20;99.90;;;;;;4828815;29;20487;-79
2022/12/30 06:34:56;;;;;;;5.97;2.03;;;5.10;99.90;;;;;;4835689;29;20547;-79
2022/12/30 06:37:22;;;;;;;9.80;2.78;;;5.10;99.90;;;;;;4828836;29;20022;-79
2022/12/30 06:39:48;;;;;;;3.97;1.85;;;5.00;99.90;;;;;;4836296;29;20030;-78
2022/12/30 06:42:14;;;;;;;3.17;1.48;;;5.00;99.90;;;;;;4821511;29;20038;-79
2022/12/30 06:44:39;;;;;;;2.20;1.25;;;5.00;99.90;;;;;;4838312;29;20065;-79
2022/12/30 06:47:05;;;;;;;2.10;1.10;;;4.90;99.90;;;;;;4824868;29;20042;-80
2022/12/30 06:49:30;;;;;;;1.10;0.85;;;4.80;99.90;;;;;;4834893;29;20101;-79
2022/12/30 06:51:56;;;;;;;2.42;1.33;;;4.80;99.90;;;;;;4834658;29;20187;-79
2022/12/30 06:54:22;;;;;;;6.78;2.97;;;4.80;99.90;;;;;;4831278;29;20049;-78
2022/12/30 06:56:47;;;;;;;2.00;1.15;;;4.80;99.90;;;;;;4822769;29;20035;-76
2022/12/30 06:59:13;;;;;;;6.60;1.98;;;4.80;99.90;;;;;;4835162;29;20142;-79
2022/12/30 07:01:39;;;;;;;3.47;1.52;;;4.80;99.90;;;;;;4822971;29;20038;-79
2022/12/30 07:04:04;;;;;;;2.42;1.60;;;4.80;99.90;;;;;;4839466;29;20113;-77
2022/12/30 07:06:30;;;;;;;2.95;1.70;;;4.90;99.90;;;;;;4821182;29;20046;-78
2022/12/30 07:08:56;;;;;;;4.50;2.08;;;5.00;99.90;;;;;;4832341;29;20038;-77
2022/12/30 07:11:22;;;;;;;4.65;2.33;;;5.20;99.90;;;;;;4823783;29;20425;-75
2022/12/30 07:13:47;;;;;;;6.07;2.10;;;5.20;99.90;;;;;;4825138;29;20092;-74
2022/12/30 07:16:13;;;;;;;6.80;2.03;;;5.20;99.90;;;;;;4823074;29;20791;-73
2022/12/30 07:18:39;;;;;;;6.70;2.05;;;5.20;99.90;;;;;;4828500;29;20134;-73
2022/12/30 07:21:05;;;;;;;5.97;2.47;;;5.20;99.90;;;;;;4834230;29;20046;-73
2022/12/30 07:23:31;;;;;;;3.20;2.25;;;5.30;99.90;;;;;;4831442;29;20553;-73
2022/12/30 07:25:56;;;;;;;5.68;2.47;;;5.30;99.90;;;;;;4831796;29;20050;-73
2022/12/30 07:28:22;;;;;;;2.50;1.98;;;5.20;99.90;;;;;;4837866;29;20042;-73
2022/12/30 07:30:48;;;;;;;3.97;1.92;;;5.20;99.90;;;;;;4817022;29;20046;-74
2022/12/30 07:33:13;;;;;;;3.88;2.08;;;5.30;99.90;;;;;;4834176;29;20045;-74
2022/12/30 07:35:39;;;;;;;6.85;2.25;;;5.30;99.90;;;;;;4835266;29;20537;-74
2022/12/30 07:38:05;;;;;;;3.53;1.60;;;5.30;99.90;;;;;;4829952;29;20940;-76
2022/12/30 07:40:30;;;;;;;2.30;1.92;;;5.30;99.90;;;;;;4821445;29;20033;-76
2022/12/30 07:42:56;;;;;;;2.72;1.38;;;5.30;99.90;;;;;;4828467;29;20040;-77
2022/12/30 07:45:22;;;;;;;2.22;1.08;;;5.40;99.90;;;;;;4824538;29;20042;-73
2022/12/30 07:47:47;;;;;;;4.68;2.85;;;5.40;99.90;;;;;;4830551;29;20085;-79
2022/12/30 07:50:13;;;;;;;8.82;2.53;;;5.40;99.90;;;;;;4838244;29;20038;-81
2022/12/30 07:52:40;;;;;;;5.43;2.38;;;5.50;99.90;;;;;;4824582;29;20058;-85
2022/12/30 07:55:06;;;;;;;7.15;1.63;;;5.50;99.90;;;;;;4822803;29;20035;-74
2022/12/30 07:57:32;;;;;;;2.92;1.70;;;5.50;99.90;;;;;;4823067;29;20038;-76
2022/12/30 07:59:58;;;;;;;2.55;1.60;;;5.50;99.90;;;;;;4844166;29;20038;-76
2022/12/30 08:02:23;;;;;;;9.43;2.17;;;5.60;99.90;;;;;;4823487;29;20049;-79
2022/12/30 08:04:49;;;;;;;10.77;2.50;;;5.70;99.90;;;;;;4824111;29;20073;-81
2022/12/30 08:07:16;;;;;;;1.85;1.20;;;5.80;99.90;;;;;;4823756;29;20037;-79
2022/12/30 08:09:42;;;;;;;2.92;1.13;;;5.90;99.90;;;;;;4818517;29;20154;-77
2022/12/30 08:12:08;;;;;;;2.13;1.65;;;6.00;99.90;;;;;;4823459;29;20117;-76
2022/12/30 08:14:34;;;;;;;2.25;1.25;;;6.00;99.90;;;;;;4822758;29;20129;-77
2022/12/30 08:17:00;;;;;;;2.65;1.52;;;6.10;99.90;;;;;;4822083;29;20135;-79
2022/12/30 08:19:28;;;;;;;3.28;0.80;;;6.20;99.90;;;;;;4834994;29;20036;-77
2022/12/30 08:21:53;;;;;;;5.53;1.65;;;6.30;99.90;;;;;;4832932;29;20038;-78
2022/12/30 08:24:19;;;;;;;5.55;1.00;;;6.30;99.90;;;;;;4834871;29;20390;-76
2022/12/30 08:26:45;;;;;;;1.83;0.80;;;6.40;99.90;;;;;;4824807;29;20095;-76
2022/12/30 08:29:10;;;;;;;5.10;2.03;;;6.50;99.90;;;;;;4834102;29;20038;-76
2022/12/30 08:31:36;;;;;;;2.05;1.10;;;6.50;99.90;;;;;;4833506;29;20066;-77
2022/12/30 08:34:02;;;;;;;3.50;1.50;;;6.60;99.90;;;;;;4828963;29;20066;-79
2022/12/30 08:36:29;;;;;;;1.60;0.85;;;6.60;99.90;;;;;;4825408;29;20042;-77
2022/12/30 08:39:00;;;;;;;11.00;1.25;;;6.60;99.90;;;;;;4838837;29;20037;-76
2022/12/30 08:41:30;;;;;;;1.58;0.50;;;6.60;99.90;;;;;;4818277;29;20117;-77
2022/12/30 08:43:57;;;;;;;1.85;0.63;;;6.80;99.90;;;;;;4833130;29;20041;-77
2022/12/30 08:46:25;;;;;;;1.85;0.82;;;6.80;99.90;;;;;;4839534;29;20086;-77
2022/12/30 08:48:51;;;;;;;1.02;0.70;;;6.80;99.90;;;;;;4831716;29;20030;-77
2022/12/30 08:51:17;;;;;;;1.25;0.35;;;6.80;99.90;;;;;;4829299;29;20057;-77
2022/12/30 08:53:43;;;;;;;2.10;0.70;;;6.90;99.90;;;;;;4839247;29;20120;-76
2022/12/30 08:56:21;;;;;;;1.38;0.70;;;6.90;99.90;;;;;;4831841;29;20514;-77
2022/12/30 08:58:47;;;;;;;2.22;0.88;;;7.00;99.90;;;;;;4825863;29;20395;-77
2022/12/30 09:01:36;;;;;;;10.52;1.02;;;7.00;99.90;;;;;;4838465;29;20083;-77
2022/12/30 09:04:03;;;;;;;12.80;1.38;;;7.10;99.90;;;;;;4824163;29;20062;-77
2022/12/30 09:06:30;;;;;;;7.22;1.35;;;7.10;99.90;;;;;;4851660;29;20065;-76
2022/12/30 09:08:58;;;;;;;4.25;0.70;;;7.10;99.90;;;;;;4824498;29;20503;-77
2022/12/30 09:11:29;;;;;;;1.73;0.63;;;7.20;99.90;;;;;;4839616;29;20041;-78
2022/12/30 09:13:56;;;;;;;1.33;0.60;;;7.20;99.90;;;;;;4831746;29;20065;-78
2022/12/30 09:16:23;;;;;;;3.35;1.08;;;7.30;99.90;;;;;;4827530;29;20510;-79
2022/12/30 09:18:50;;;;;;;0.70;0.52;;;7.40;99.90;;;;;;4847001;29;20549;-77
2022/12/30 09:21:17;;;;;;;1.30;0.68;;;7.50;99.90;;;;;;4832500;29;20041;-78
2022/12/30 09:23:43;;;;;;;1.08;0.30;;;7.50;99.90;;;;;;4832987;29;20048;-78
2022/12/30 09:26:14;;;;;;;9.02;0.65;;;7.60;99.90;;;;;;4830569;29;20057;-77
2022/12/30 09:28:40;;;;;;;;;;;7.60;99.90;;;;;;4832181;29;20042;-77
2022/12/30 09:31:06;;;;;;;3.03;2.22;;;7.70;99.90;;;;;;4832664;29;19939;-77
2022/12/30 09:33:32;;;;;;;3.63;0.90;;;7.80;99.90;;;;;;4834605;29;20046;-77
2022/12/30 09:35:58;;;;;;;1.45;0.68;;;7.90;99.90;;;;;;4825772;29;20038;-76
2022/12/30 09:38:24;;;;;;;0.28;0.28;;;7.90;99.90;;;;;;4810900;29;20049;-77
2022/12/30 09:40:58;;;;;;;3.92;0.88;;;8.00;99.90;;;;;;4809681;29;20399;-77
2022/12/30 09:44:04;;;;;;;0.60;0.43;;;8.00;99.90;;;;;;4820471;29;20681;-76
2022/12/30 09:46:50;;;;;;;0.85;0.63;;;8.10;99.90;;;;;;4849285;29;20041;-76
2022/12/30 09:49:38;;;;;;;1.23;0.70;;;8.20;99.90;;;;;;4826449;29;20055;-78
2022/12/30 09:52:27;;;;;;;1.13;0.57;;;8.40;99.90;;;;;;4826638;29;20503;-77
2022/12/30 09:55:24;;;;;;;1.52;0.55;;;8.60;99.90;;;;;;4830687;29;20038;-78
2022/12/30 09:57:59;;;;;;;0.70;0.40;;;9.00;99.90;;;;;;4834463;29;20053;-77
2022/12/30 10:00:28;;;;;;;3.63;0.50;;;9.60;99.90;;;;;;4819970;29;20030;-77
2022/12/30 10:03:05;;;;;;;0.63;0.40;;;9.80;99.90;;;;;;4845289;29;20120;-77
2022/12/30 10:06:13;;;;;;;0.30;0.30;;;10.20;99.90;;;;;;4842351;29;20038;-78
2022/12/30 10:09:21;;;;;;;2.55;0.50;;;10.50;99.90;;;;;;4782691;29;20031;-78
2022/12/30 10:12:26;;;;;;;0.57;0.45;;;10.60;99.90;;;;;;4815634;29;20550;-77
2022/12/30 10:15:11;;;;;;;2.60;0.68;;;10.50;99.90;;;;;;4808145;29;20050;-78
2022/12/30 10:17:53;;;;;;;9.57;0.88;;;10.10;99.90;;;;;;4807877;29;20137;-79
2022/12/30 10:20:47;;;;;;;1.23;0.55;;;10.10;99.90;;;;;;4795405;29;20049;-77
2022/12/30 10:23:52;;;;;;;1.67;0.93;;;10.30;99.90;;;;;;4820900;29;20130;-77
2022/12/30 10:26:24;;;;;;;1.85;0.60;;;10.60;99.90;;;;;;4792895;29;20058;-77
2022/12/30 10:29:05;;;;;;;0.75;0.40;;;10.40;99.90;;;;;;4788805;29;20035;-77
2022/12/30 10:31:36;;;;;;;2.00;0.75;;;10.60;99.90;;;;;;4811253;29;20034;-77
2022/12/30 10:34:18;;;;;;;0.50;0.38;;;10.70;99.90;;;;;;4792114;29;20051;-79
2022/12/30 10:37:00;;;;;;;1.45;0.40;;;10.50;99.90;;;;;;4794436;29;20112;-78
2022/12/30 10:39:37;;;;;;;1.58;0.40;;;10.40;99.90;;;;;;4810981;29;20044;-79
2022/12/30 10:42:40;;;;;;;2.85;0.30;;;10.40;99.90;;;;;;4842742;29;20117;-78
2022/12/30 10:45:36;;;;;;;1.30;0.40;;;10.60;99.90;;;;;;4831575;29;20042;-78
2022/12/30 10:48:59;;;;;;;2.15;0.40;;;10.60;99.90;;;;;;4839173;29;20034;-79
2022/12/30 10:51:26;;;;;;;3.50;0.40;;;10.60;99.90;;;;;;4792543;29;20027;-77
2022/12/30 10:53:53;;;;;;;0.43;0.30;;;10.40;99.90;;;;;;4840159;29;20125;-76
2022/12/30 10:56:28;;;;;;;2.38;0.40;;;10.40;99.90;;;;;;4838333;29;20038;-77
2022/12/30 10:58:59;;;;;;;0.40;0.30;;;10.50;99.90;;;;;;4820164;29;20065;-78
2022/12/30 11:01:32;;;;;;;;;;;10.60;99.90;;;;;;4828248;29;20040;-77
2022/12/30 11:03:58;;;;;;;1.65;0.82;;;10.50;99.90;;;;;;4837364;29;19949;-77
2022/12/30 11:06:34;;;;;;;1.45;0.70;;;10.60;99.90;;;;;;4840942;29;20531;-77
2022/12/30 11:09:12;;;;;;;7.53;0.40;;;10.70;99.90;;;;;;4830649;29;20035;-78
2022/12/30 11:15:13;;;;;;;1.33;0.60;;;10.80;99.90;;;;;;4828666;29;20425;-78
2022/12/30 11:17:47;;;;;;;0.70;0.40;;;10.50;99.90;;;;;;4834112;29;20058;-77
2022/12/30 11:20:13;;;;;;;0.55;0.28;;;10.30;99.90;;;;;;4824350;29;20388;-78
2022/12/30 11:22:54;;;;;;;1.80;0.80;;;10.40;99.90;;;;;;4832004;29;20042;-79
2022/12/30 11:25:35;;;;;;;0.50;0.43;;;10.30;99.90;;;;;;4825191;29;20045;-77
2022/12/30 11:28:13;;;;;;;1.73;0.65;;;10.20;99.90;;;;;;4834445;29;20042;-77
2022/12/30 11:30:50;;;;;;;9.65;1.40;;;10.00;99.90;;;;;;4820155;29;20058;-77
2022/12/30 11:33:48;;;;;;;1.38;0.70;;;9.90;99.90;;;;;;4829065;29;20494;-79
2022/12/30 11:36:30;;;;;;;0.40;0.30;;;9.80;99.90;;;;;;4827025;29;20443;-79
2022/12/30 11:39:08;;;;;;;;;;;9.70;99.90;;;;;;4828232;29;20159;-79
2022/12/30 11:41:53;;;;;;;1.50;0.40;;;9.50;99.90;;;;;;4833447;29;19939;-78
2022/12/30 11:44:23;;;;;;;0.85;0.32;;;9.50;99.90;;;;;;4825498;29;20045;-77
2022/12/30 11:46:53;;;;;;;1.08;0.50;;;9.50;99.90;;;;;;4843738;23;20471;-80
2022/12/30 11:49:53;;;;;;;2.80;0.60;;;9.40;99.90;;;;;;4816042;29;20035;-85
2022/12/30 11:52:26;;;;;;;1.95;0.60;;;9.40;99.90;;;;;;4814814;29;20046;-85
2022/12/30 11:55:00;;;;;;;1.80;0.73;;;9.30;99.90;;;;;;4836215;29;20049;-83
2022/12/30 11:57:40;;;;;;;1.67;0.22;;;9.30;99.90;;;;;;4820843;29;20057;-83
2022/12/30 12:00:37;;;;;;;1.95;0.55;;;9.30;99.90;;;;;;4818216;29;20035;-84
2022/12/30 12:03:15;;;;;;;0.80;0.30;;;9.30;99.90;;;;;;4822857;29;20034;-83
2022/12/30 12:05:44;;;;;;;3.85;0.75;;;9.30;99.90;;;;;;4813299;29;20039;-84
2022/12/30 12:08:19;;;;;;;3.60;0.88;;;9.30;99.90;;;;;;4837376;29;20120;-85
2022/12/30 12:10:54;;;;;;;1.38;0.82;;;9.30;99.90;;;;;;4824262;29;20099;-84
2022/12/30 12:13:51;;;;;;;1.75;0.63;;;9.30;99.90;;;;;;4830702;29;20038;-85
2022/12/30 12:16:37;;;;;;;1.05;0.55;;;9.40;99.90;;;;;;4825808;29;20415;-85
2022/12/30 12:19:38;;;;;;;7.28;0.82;;;9.40;99.90;;;;;;4815845;29;20038;-84
2022/12/30 12:22:14;;;;;;;0.30;0.30;;;9.40;99.90;;;;;;4808593;29;20042;-84
2022/12/30 12:24:46;;;;;;;0.68;0.30;;;9.50;99.90;;;;;;4832283;29;20117;-84
2022/12/30 12:27:17;;;;;;;0.20;0.20;;;9.50;99.90;;;;;;4823512;29;20123;-85
2022/12/30 12:29:45;;;;;;;0.28;0.28;;;9.50;99.90;;;;;;4818253;29;20038;-85
2022/12/30 12:32:48;;;;;;;0.98;0.82;;;9.50;99.90;;;;;;4824331;29;20038;-84
2022/12/30 12:35:32;;;;;;;2.33;0.65;;;9.50;99.90;;;;;;4822203;29;20772;-84
2022/12/30 12:38:03;;;;;;;0.88;0.60;;;9.50;99.90;;;;;;4824934;29;20046;-84
2022/12/30 12:40:40;;;;;;;1.73;0.75;;;9.60;99.90;;;;;;4833735;29;20046;-84
2022/12/30 12:43:45;;;;;;;1.73;0.60;;;9.60;99.90;;;;;;4824926;29;20070;-85
2022/12/30 12:47:00;;;;;;;0.93;0.60;;;9.60;99.90;;;;;;4813441;29;20042;-85
2022/12/30 12:49:40;;;;;;;6.38;1.23;;;9.60;99.90;;;;;;4810904;29;20030;-84
2022/12/30 12:52:33;;;;;;;0.68;0.30;;;9.60;99.90;;;;;;4809655;29;20596;-85
2022/12/30 12:55:38;;;;;;;0.32;0.32;;;9.50;99.90;;;;;;4821070;29;20054;-85
2022/12/30 12:58:59;;;;;;;3.95;0.50;;;9.40;99.90;;;;;;4801015;29;20058;-84
2022/12/30 13:01:50;;;;;;;0.20;0.20;;;9.50;99.90;;;;;;4777348;29;20572;-84
2022/12/30 13:04:59;;;;;;;3.05;0.50;;;9.50;99.90;;;;;;4795512;29;20056;-85
2022/12/30 13:07:53;;;;;;;0.40;0.40;;;9.50;99.90;;;;;;4810849;29;20606;-84
2022/12/30 13:10:50;;;;;;;1.17;0.60;;;9.50;99.90;;;;;;4823916;29;20069;-85
2022/12/30 13:13:35;;;;;;;2.53;0.38;;;9.60;99.90;;;;;;4808046;29;20055;-85
2022/12/30 13:16:26;;;;;;;4.20;0.52;;;9.60;99.90;;;;;;4808808;29;20057;-84
2022/12/30 13:18:54;;;;;;;;;;;9.60;99.90;;;;;;4810680;29;20182;-85
2022/12/30 13:21:24;;;;;;;3.83;0.65;;;9.60;99.90;;;;;;4811202;29;19921;-85
2022/12/30 13:24:02;;;;;;;1.45;0.60;;;9.70;99.90;;;;;;4829105;29;20061;-85
2022/12/30 13:26:29;;;;;;;2.13;0.47;;;9.70;99.90;;;;;;4832054;29;20050;-86
2022/12/30 13:29:00;;;;;;;0.88;0.70;;;9.70;99.90;;;;;;4812361;29;20033;-85
2022/12/30 13:31:57;;;;;;;0.40;0.38;;;9.80;99.90;;;;;;4810414;29;20099;-86
2022/12/30 13:34:57;;;;;;;2.60;0.20;;;9.80;99.90;;;;;;4830009;29;20046;-85
2022/12/30 13:37:49;;;;;;;0.60;0.27;;;9.80;99.90;;;;;;4804006;29;20137;-84
2022/12/30 13:40:21;;;;;;;0.32;0.32;;;9.80;99.90;;;;;;4815857;29;20288;-78
2022/12/30 13:43:25;;;;;;;1.13;0.40;;;9.90;99.90;;;;;;4820968;29;20449;-77
2022/12/30 13:45:55;;;;;;;1.00;0.77;;;9.90;99.90;;;;;;4795544;29;20035;-77
2022/12/30 13:48:25;;;;;;;0.35;0.22;;;9.90;99.90;;;;;;4803445;29;20487;-79
2022/12/30 13:51:15;;;;;;;0.83;0.57;;;9.90;99.90;;;;;;4811896;29;20042;-80
2022/12/30 13:53:49;;;;;;;0.68;0.40;;;9.90;99.90;;;;;;4827522;29;20042;-80
2022/12/30 13:56:44;;;;;;;1.52;0.82;;;9.90;99.90;;;;;;4808480;29;20690;-81
2022/12/30 13:59:34;;;;;;;0.68;0.25;;;9.90;99.90;;;;;;4812823;29;20499;-80
2022/12/30 14:02:18;;;;;;;2.47;0.50;;;9.90;99.90;;;;;;4835965;29;20042;-85
2022/12/30 14:04:56;;;;;;;1.70;0.75;;;9.90;99.90;;;;;;4814602;29;20047;-78
2022/12/30 14:07:37;;;;;;;3.83;0.60;;;9.90;99.90;;;;;;4792287;29;20027;-79
2022/12/30 14:10:15;;;;;;;1.85;0.30;;;9.90;99.90;;;;;;4816654;29;20117;-77
2022/12/30 14:12:43;;;;;;;1.33;0.70;;;9.90;99.90;;;;;;4823793;29;20113;-78
2022/12/30 14:15:50;;;;;;;1.15;0.75;;;10.00;99.90;;;;;;4830849;29;20618;-76
2022/12/30 14:18:36;;;;;;;0.47;0.30;;;10.00;99.90;;;;;;4809716;29;20676;-75
2022/12/30 14:21:18;;;;;;;1.88;0.57;;;10.00;99.90;;;;;;4817416;29;20057;-76
2022/12/30 14:23:57;;;;;;;0.63;0.40;;;10.00;99.90;;;;;;4817397;29;20403;-75
2022/12/30 14:26:26;;;;;;;1.65;0.55;;;10.00;99.90;;;;;;4811015;29;20027;-77
2022/12/30 14:29:01;;;;;;;0.77;0.40;;;10.00;99.90;;;;;;4818161;29;20038;-76
2022/12/30 14:31:52;;;;;;;6.82;1.20;;;9.90;99.90;;;;;;4833447;29;20574;-77